CYP465 LGSK-LCLK
Flight info
| Callsign | CYP465 |
|---|---|
| Flight time | 1h 25m |
| Altitude | 37000 |
| Route | ETEKA DCT ETRUD DCT MES DCT LURUS DCT RDS UM601 EVENO M601 BONEK |
| Aircraft | A320/M-SDE3FGHIRWY/LB1 |
Departure
| Time | 2026-05-05 08:30 |
|---|---|
| Airport | Skiathos Island National Airport (LGSK) |
Arrival
| Time | 2026-05-05 09:55 |
|---|---|
| Airport | Larnaca International Airport (LCLK) |
| Time | Latitude | Longitude | Altitude | Speed | Heading |
|---|---|---|---|---|---|
| 2026-05-05 08:06 | 39.17797 | 23.50180 | 39 ft | 0 kts | 289° |
| 2026-05-05 08:22 | 39.17792 | 23.50197 | 38 ft | 4 kts | 291° |
| 2026-05-05 08:22 | 39.17784 | 23.50223 | 38 ft | 4 kts | 298° |
| 2026-05-05 08:22 | 39.17768 | 23.50250 | 40 ft | 4 kts | 325° |
| 2026-05-05 08:22 | 39.17748 | 23.50263 | 40 ft | 1 kts | 347° |
| 2026-05-05 08:23 | 39.17743 | 23.50264 | 40 ft | 0 kts | 347° |
| 2026-05-05 08:26 | 39.17756 | 23.50262 | 38 ft | 6 kts | 355° |
| 2026-05-05 08:26 | 39.17819 | 23.50282 | 40 ft | 11 kts | 18° |
| 2026-05-05 08:26 | 39.17885 | 23.50311 | 40 ft | 9 kts | 22° |
| 2026-05-05 08:26 | 39.17922 | 23.50367 | 41 ft | 8 kts | 60° |
| 2026-05-05 08:27 | 39.17931 | 23.50437 | 41 ft | 8 kts | 87° |
| 2026-05-05 08:27 | 39.17959 | 23.50475 | 42 ft | 5 kts | 17° |
| 2026-05-05 08:27 | 39.18043 | 23.50512 | 44 ft | 22 kts | 19° |
| 2026-05-05 08:27 | 39.18192 | 23.50581 | 51 ft | 22 kts | 20° |
| 2026-05-05 08:28 | 39.18329 | 23.50641 | 54 ft | 20 kts | 18° |
| 2026-05-05 08:28 | 39.18418 | 23.50659 | 59 ft | 6 kts | 43° |
| 2026-05-05 08:28 | 39.18409 | 23.50671 | 53 ft | 2 kts | 171° |
| 2026-05-05 08:28 | 39.18387 | 23.50666 | 54 ft | 5 kts | 197° |
| 2026-05-05 08:29 | 39.18385 | 23.50665 | 54 ft | 0 kts | 197° |
| 2026-05-05 08:29 | 39.18191 | 23.50580 | 52 ft | 75 kts | 199° |
| 2026-05-05 08:29 | 39.17409 | 23.50237 | 46 ft | 156 kts | 197° |
| 2026-05-05 08:30 | 39.15228 | 23.49265 | 1545 ft | 177 kts | 202° |
| 2026-05-05 08:30 | 39.14044 | 23.48742 | 2292 ft | 183 kts | 202° |
| 2026-05-05 08:30 | 39.12767 | 23.48173 | 2630 ft | 205 kts | 202° |
| 2026-05-05 08:30 | 39.11368 | 23.47546 | 3160 ft | 215 kts | 201° |
| 2026-05-05 08:31 | 39.09969 | 23.46928 | 3839 ft | 216 kts | 201° |
| 2026-05-05 08:31 | 39.08538 | 23.46307 | 4501 ft | 218 kts | 198° |
| 2026-05-05 08:31 | 39.07010 | 23.46217 | 5124 ft | 225 kts | 167° |
| 2026-05-05 08:31 | 39.05640 | 23.47178 | 5726 ft | 228 kts | 133° |
| 2026-05-05 08:32 | 39.04861 | 23.48917 | 6360 ft | 225 kts | 101° |
| 2026-05-05 08:32 | 39.04777 | 23.50907 | 7010 ft | 222 kts | 86° |
| 2026-05-05 08:32 | 39.04811 | 23.52870 | 7662 ft | 222 kts | 85° |
| 2026-05-05 08:32 | 39.04844 | 23.54865 | 8317 ft | 223 kts | 85° |
| 2026-05-05 08:33 | 39.04876 | 23.56866 | 9077 ft | 223 kts | 85° |
| 2026-05-05 08:33 | 39.04904 | 23.58844 | 9857 ft | 224 kts | 85° |
| 2026-05-05 08:33 | 39.04929 | 23.60861 | 10539 ft | 225 kts | 85° |
| 2026-05-05 08:33 | 39.04954 | 23.62879 | 11175 ft | 229 kts | 85° |
| 2026-05-05 08:34 | 39.04979 | 23.64951 | 11812 ft | 232 kts | 85° |
| 2026-05-05 08:34 | 39.05006 | 23.67027 | 12443 ft | 236 kts | 85° |
| 2026-05-05 08:34 | 39.05078 | 23.69175 | 12916 ft | 247 kts | 77° |
| 2026-05-05 08:34 | 39.05529 | 23.71401 | 13140 ft | 267 kts | 66° |
| 2026-05-05 08:35 | 39.06325 | 23.73678 | 13361 ft | 289 kts | 61° |
| 2026-05-05 08:35 | 39.07224 | 23.76076 | 13557 ft | 313 kts | 62° |
| 2026-05-05 08:35 | 39.08177 | 23.78718 | 13716 ft | 336 kts | 63° |
| 2026-05-05 08:35 | 39.09172 | 23.81547 | 13964 ft | 353 kts | 63° |
| 2026-05-05 08:36 | 39.10176 | 23.84447 | 14457 ft | 361 kts | 63° |
| 2026-05-05 08:36 | 39.11206 | 23.87441 | 15016 ft | 366 kts | 63° |
| 2026-05-05 08:36 | 39.12249 | 23.90468 | 15573 ft | 372 kts | 63° |
| 2026-05-05 08:36 | 39.13301 | 23.93503 | 16119 ft | 377 kts | 63° |
| 2026-05-05 08:37 | 39.14385 | 23.96625 | 16678 ft | 383 kts | 64° |
| 2026-05-05 08:37 | 39.15217 | 23.99941 | 17231 ft | 392 kts | 75° |
| 2026-05-05 08:37 | 39.15554 | 24.03428 | 17754 ft | 401 kts | 86° |
| 2026-05-05 08:37 | 39.15415 | 24.07065 | 18304 ft | 409 kts | 92° |
| 2026-05-05 08:38 | 39.15181 | 24.10761 | 18804 ft | 413 kts | 92° |
| 2026-05-05 08:38 | 39.14954 | 24.14430 | 19320 ft | 416 kts | 92° |
| 2026-05-05 08:38 | 39.14728 | 24.18176 | 19862 ft | 420 kts | 92° |
| 2026-05-05 08:38 | 39.14503 | 24.21943 | 20403 ft | 423 kts | 92° |
| 2026-05-05 08:39 | 39.14278 | 24.25705 | 20926 ft | 426 kts | 92° |
| 2026-05-05 08:39 | 39.14048 | 24.29538 | 21444 ft | 429 kts | 92° |
| 2026-05-05 08:39 | 39.13815 | 24.33400 | 21945 ft | 432 kts | 92° |
| 2026-05-05 08:39 | 39.13581 | 24.37274 | 22435 ft | 435 kts | 92° |
| 2026-05-05 08:40 | 39.13344 | 24.41123 | 22909 ft | 438 kts | 92° |
| 2026-05-05 08:40 | 39.13098 | 24.45058 | 23381 ft | 441 kts | 93° |
| 2026-05-05 08:40 | 39.12847 | 24.49020 | 23800 ft | 444 kts | 93° |
| 2026-05-05 08:40 | 39.12594 | 24.52991 | 24171 ft | 446 kts | 92° |
| 2026-05-05 08:41 | 39.12345 | 24.56946 | 24535 ft | 449 kts | 92° |
| 2026-05-05 08:41 | 39.12088 | 24.60990 | 24902 ft | 451 kts | 92° |
| 2026-05-05 08:41 | 39.11830 | 24.64994 | 25253 ft | 453 kts | 92° |
| 2026-05-05 08:41 | 39.11564 | 24.69064 | 25595 ft | 456 kts | 92° |
| 2026-05-05 08:42 | 39.11277 | 24.73114 | 25929 ft | 459 kts | 95° |
| 2026-05-05 08:42 | 39.10601 | 24.77167 | 26258 ft | 465 kts | 105° |
| 2026-05-05 08:42 | 39.09404 | 24.81058 | 26580 ft | 470 kts | 115° |
| 2026-05-05 08:42 | 39.07702 | 24.84691 | 26890 ft | 474 kts | 125° |
| 2026-05-05 08:43 | 39.05580 | 24.87890 | 27185 ft | 478 kts | 134° |
| 2026-05-05 08:43 | 39.03220 | 24.90938 | 27476 ft | 480 kts | 134° |
| 2026-05-05 08:43 | 39.00852 | 24.93999 | 27760 ft | 483 kts | 134° |
| 2026-05-05 08:43 | 38.98473 | 24.97077 | 28023 ft | 486 kts | 134° |
| 2026-05-05 08:44 | 38.96103 | 25.00145 | 28282 ft | 489 kts | 134° |
| 2026-05-05 08:44 | 38.93690 | 25.03267 | 28602 ft | 490 kts | 134° |
| 2026-05-05 08:44 | 38.91274 | 25.06386 | 28894 ft | 492 kts | 134° |
| 2026-05-05 08:44 | 38.88857 | 25.09502 | 29150 ft | 494 kts | 134° |
| 2026-05-05 08:45 | 38.86447 | 25.12606 | 29392 ft | 496 kts | 134° |
| 2026-05-05 08:45 | 38.84018 | 25.15735 | 29628 ft | 498 kts | 134° |
| 2026-05-05 08:45 | 38.81558 | 25.18909 | 29860 ft | 499 kts | 134° |
| 2026-05-05 08:45 | 38.79105 | 25.22071 | 30180 ft | 499 kts | 134° |
| 2026-05-05 08:46 | 38.76679 | 25.25192 | 30459 ft | 499 kts | 134° |
| 2026-05-05 08:46 | 38.74223 | 25.28341 | 30737 ft | 499 kts | 134° |
| 2026-05-05 08:46 | 38.71765 | 25.31483 | 31012 ft | 498 kts | 134° |
| 2026-05-05 08:46 | 38.69305 | 25.34627 | 31309 ft | 497 kts | 134° |
| 2026-05-05 08:47 | 38.66856 | 25.37757 | 31651 ft | 495 kts | 134° |
| 2026-05-05 08:47 | 38.64450 | 25.40830 | 31946 ft | 494 kts | 134° |
| 2026-05-05 08:47 | 38.62009 | 25.43943 | 32230 ft | 494 kts | 134° |
| 2026-05-05 08:47 | 38.59567 | 25.47053 | 32508 ft | 494 kts | 134° |
| 2026-05-05 08:48 | 38.57136 | 25.50149 | 32782 ft | 493 kts | 134° |
| 2026-05-05 08:48 | 38.54698 | 25.53258 | 33055 ft | 493 kts | 134° |
| 2026-05-05 08:48 | 38.52268 | 25.56353 | 33328 ft | 493 kts | 134° |
| 2026-05-05 08:48 | 38.49862 | 25.59414 | 33598 ft | 493 kts | 134° |
| 2026-05-05 08:49 | 38.47425 | 25.62507 | 33874 ft | 493 kts | 134° |
| 2026-05-05 08:49 | 38.44983 | 25.65599 | 34166 ft | 492 kts | 134° |
| 2026-05-05 08:49 | 38.42556 | 25.68669 | 34439 ft | 491 kts | 134° |
| 2026-05-05 08:49 | 38.40127 | 25.71736 | 34676 ft | 491 kts | 134° |
| 2026-05-05 08:50 | 38.37699 | 25.74800 | 34899 ft | 491 kts | 134° |
| 2026-05-05 08:50 | 38.35300 | 25.77831 | 35116 ft | 490 kts | 134° |
| 2026-05-05 08:50 | 38.32869 | 25.80898 | 35343 ft | 490 kts | 134° |
| 2026-05-05 08:50 | 38.30445 | 25.83954 | 35559 ft | 490 kts | 134° |
| 2026-05-05 08:51 | 38.27997 | 25.86987 | 35775 ft | 489 kts | 138° |
| 2026-05-05 08:51 | 38.25336 | 25.89614 | 35978 ft | 489 kts | 147° |
| 2026-05-05 08:51 | 38.22363 | 25.91730 | 36174 ft | 488 kts | 157° |
| 2026-05-05 08:51 | 38.19205 | 25.93298 | 36373 ft | 486 kts | 162° |
| 2026-05-05 08:52 | 38.16017 | 25.94730 | 36564 ft | 486 kts | 162° |
| 2026-05-05 08:52 | 38.12873 | 25.96159 | 36772 ft | 485 kts | 162° |
| 2026-05-05 08:52 | 38.09688 | 25.97615 | 36967 ft | 485 kts | 162° |
| 2026-05-05 08:52 | 38.06502 | 25.99073 | 37083 ft | 485 kts | 162° |
| 2026-05-05 08:53 | 38.03310 | 26.00533 | 37099 ft | 486 kts | 162° |
| 2026-05-05 08:53 | 37.96976 | 26.03424 | 37100 ft | 486 kts | 162° |
| 2026-05-05 08:54 | 37.90588 | 26.06321 | 37100 ft | 486 kts | 162° |
| 2026-05-05 08:54 | 37.84193 | 26.09208 | 37096 ft | 487 kts | 162° |
| 2026-05-05 08:55 | 37.77831 | 26.12081 | 37099 ft | 488 kts | 162° |
| 2026-05-05 08:55 | 37.71460 | 26.14951 | 37107 ft | 488 kts | 162° |
| 2026-05-05 08:56 | 37.65046 | 26.17831 | 37103 ft | 488 kts | 162° |
| 2026-05-05 08:56 | 37.58668 | 26.20698 | 37108 ft | 488 kts | 162° |
| 2026-05-05 08:57 | 37.52236 | 26.23591 | 37110 ft | 488 kts | 162° |
| 2026-05-05 08:57 | 37.45869 | 26.26442 | 37120 ft | 488 kts | 162° |
| 2026-05-05 08:58 | 37.39467 | 26.29293 | 37115 ft | 487 kts | 162° |
| 2026-05-05 08:58 | 37.33067 | 26.32140 | 37120 ft | 487 kts | 162° |
| 2026-05-05 08:59 | 37.26709 | 26.34977 | 37121 ft | 486 kts | 162° |
| 2026-05-05 08:59 | 37.20310 | 26.37825 | 37118 ft | 486 kts | 162° |
| 2026-05-05 09:00 | 37.13965 | 26.40634 | 37094 ft | 486 kts | 163° |
| 2026-05-05 09:00 | 37.07554 | 26.43466 | 37104 ft | 487 kts | 162° |
| 2026-05-05 09:01 | 37.01181 | 26.46291 | 37099 ft | 487 kts | 162° |
| 2026-05-05 09:01 | 36.94858 | 26.49313 | 37108 ft | 489 kts | 154° |
| 2026-05-05 09:02 | 36.89431 | 26.54343 | 37085 ft | 490 kts | 132° |
| 2026-05-05 09:02 | 36.86121 | 26.60087 | 37085 ft | 488 kts | 115° |
| 2026-05-05 09:03 | 36.83388 | 26.67866 | 37071 ft | 488 kts | 111° |
| 2026-05-05 09:03 | 36.80718 | 26.75625 | 37063 ft | 489 kts | 111° |
| 2026-05-05 09:04 | 36.78005 | 26.83444 | 37060 ft | 490 kts | 111° |
| 2026-05-05 09:04 | 36.75309 | 26.91208 | 37074 ft | 490 kts | 112° |
| 2026-05-05 09:05 | 36.72596 | 26.99028 | 37067 ft | 490 kts | 112° |
| 2026-05-05 09:05 | 36.69894 | 27.06810 | 37065 ft | 490 kts | 112° |
| 2026-05-05 09:06 | 36.67172 | 27.14628 | 37064 ft | 490 kts | 112° |
| 2026-05-05 09:06 | 36.64460 | 27.22385 | 37083 ft | 490 kts | 112° |
| 2026-05-05 09:07 | 36.61739 | 27.30150 | 37074 ft | 490 kts | 112° |
| 2026-05-05 09:07 | 36.58998 | 27.37952 | 37068 ft | 490 kts | 112° |
| 2026-05-05 09:08 | 36.56267 | 27.45709 | 37062 ft | 490 kts | 112° |
| 2026-05-05 09:08 | 36.53537 | 27.53437 | 37064 ft | 490 kts | 112° |
| 2026-05-05 09:09 | 36.50782 | 27.61208 | 37057 ft | 490 kts | 112° |
| 2026-05-05 09:09 | 36.48044 | 27.68914 | 37056 ft | 490 kts | 112° |
| 2026-05-05 09:10 | 36.45282 | 27.76681 | 37043 ft | 490 kts | 113° |
| 2026-05-05 09:10 | 36.42530 | 27.84390 | 37041 ft | 490 kts | 113° |
| 2026-05-05 09:11 | 36.39753 | 27.92145 | 37041 ft | 490 kts | 113° |
| 2026-05-05 09:11 | 36.37003 | 27.99824 | 37042 ft | 490 kts | 113° |
| 2026-05-05 09:12 | 36.34236 | 28.07573 | 37056 ft | 490 kts | 110° |
| 2026-05-05 09:12 | 36.32112 | 28.15560 | 37033 ft | 489 kts | 106° |
| 2026-05-05 09:13 | 36.30070 | 28.23577 | 37025 ft | 489 kts | 106° |
| 2026-05-05 09:13 | 36.28020 | 28.31597 | 37024 ft | 489 kts | 106° |
| 2026-05-05 09:14 | 36.25951 | 28.39646 | 37033 ft | 490 kts | 106° |
| 2026-05-05 09:14 | 36.23868 | 28.47698 | 37025 ft | 490 kts | 106° |
| 2026-05-05 09:15 | 36.21794 | 28.55696 | 37017 ft | 490 kts | 106° |
| 2026-05-05 09:15 | 36.19697 | 28.63763 | 37018 ft | 490 kts | 106° |
| 2026-05-05 09:16 | 36.17608 | 28.71783 | 37026 ft | 491 kts | 106° |
| 2026-05-05 09:16 | 36.15512 | 28.79800 | 37022 ft | 491 kts | 106° |
| 2026-05-05 09:17 | 36.13397 | 28.87843 | 37022 ft | 491 kts | 107° |
| 2026-05-05 09:17 | 36.11272 | 28.95898 | 37025 ft | 491 kts | 107° |
| 2026-05-05 09:18 | 36.09162 | 29.03882 | 37025 ft | 491 kts | 107° |
| 2026-05-05 09:18 | 36.07028 | 29.11919 | 37026 ft | 491 kts | 107° |
| 2026-05-05 09:19 | 36.04905 | 29.19905 | 37025 ft | 491 kts | 107° |
| 2026-05-05 09:19 | 36.02756 | 29.27955 | 37031 ft | 491 kts | 107° |
| 2026-05-05 09:20 | 36.00618 | 29.35952 | 37025 ft | 491 kts | 107° |
| 2026-05-05 09:20 | 35.98477 | 29.43943 | 37022 ft | 492 kts | 107° |
| 2026-05-05 09:21 | 35.96316 | 29.51971 | 37020 ft | 492 kts | 107° |
| 2026-05-05 09:21 | 35.94164 | 29.59951 | 37024 ft | 492 kts | 107° |
| 2026-05-05 09:22 | 35.92004 | 29.67991 | 37019 ft | 492 kts | 107° |
| 2026-05-05 09:22 | 35.89845 | 29.75999 | 37018 ft | 493 kts | 107° |
| 2026-05-05 09:23 | 35.87674 | 29.84028 | 37030 ft | 493 kts | 107° |
| 2026-05-05 09:23 | 35.85495 | 29.92051 | 37023 ft | 493 kts | 107° |
| 2026-05-05 09:24 | 35.83315 | 30.00047 | 37021 ft | 493 kts | 107° |
| 2026-05-05 09:24 | 35.81215 | 30.08110 | 37020 ft | 493 kts | 105° |
| 2026-05-05 09:25 | 35.79233 | 30.16162 | 37019 ft | 493 kts | 105° |
| 2026-05-05 09:25 | 35.77222 | 30.24288 | 37012 ft | 494 kts | 105° |
| 2026-05-05 09:26 | 35.75182 | 30.32344 | 37010 ft | 495 kts | 106° |
| 2026-05-05 09:26 | 35.73130 | 30.40400 | 37026 ft | 495 kts | 106° |
| 2026-05-05 09:27 | 35.71059 | 30.48509 | 37012 ft | 496 kts | 106° |
| 2026-05-05 09:27 | 35.68984 | 30.56595 | 37010 ft | 496 kts | 106° |
| 2026-05-05 09:28 | 35.66899 | 30.64682 | 37012 ft | 497 kts | 106° |
| 2026-05-05 09:28 | 35.64819 | 30.72758 | 37016 ft | 497 kts | 106° |
| 2026-05-05 09:29 | 35.62729 | 30.80898 | 37014 ft | 497 kts | 106° |
| 2026-05-05 09:29 | 35.60645 | 30.88982 | 37016 ft | 497 kts | 106° |
| 2026-05-05 09:30 | 35.58594 | 30.97101 | 37022 ft | 497 kts | 105° |
| 2026-05-05 09:30 | 35.56558 | 31.05215 | 36998 ft | 498 kts | 105° |
| 2026-05-05 09:31 | 35.54501 | 31.13324 | 37007 ft | 499 kts | 106° |
| 2026-05-05 09:31 | 35.52408 | 31.21484 | 36997 ft | 499 kts | 106° |
| 2026-05-05 09:32 | 35.50334 | 31.29610 | 36998 ft | 501 kts | 106° |
| 2026-05-05 09:32 | 35.48256 | 31.37737 | 36996 ft | 502 kts | 106° |
| 2026-05-05 09:33 | 35.46150 | 31.45936 | 36991 ft | 502 kts | 106° |
| 2026-05-05 09:33 | 35.44046 | 31.54088 | 36992 ft | 503 kts | 107° |
| 2026-05-05 09:34 | 35.41915 | 31.62295 | 36984 ft | 504 kts | 107° |
| 2026-05-05 09:34 | 35.39786 | 31.70473 | 36988 ft | 505 kts | 107° |
| 2026-05-05 09:35 | 35.37651 | 31.78686 | 36785 ft | 506 kts | 107° |
| 2026-05-05 09:35 | 35.35497 | 31.86925 | 35769 ft | 511 kts | 107° |
| 2026-05-05 09:35 | 35.34404 | 31.91098 | 34764 ft | 516 kts | 106° |
| 2026-05-05 09:36 | 35.33309 | 31.95268 | 33796 ft | 519 kts | 106° |
| 2026-05-05 09:36 | 35.32195 | 31.99505 | 32576 ft | 523 kts | 105° |
| 2026-05-05 09:36 | 35.31074 | 32.03757 | 31436 ft | 525 kts | 105° |
| 2026-05-05 09:36 | 35.29972 | 32.07925 | 30460 ft | 514 kts | 104° |
| 2026-05-05 09:37 | 35.28871 | 32.12100 | 29141 ft | 514 kts | 103° |
| 2026-05-05 09:37 | 35.27779 | 32.16271 | 28238 ft | 511 kts | 103° |
| 2026-05-05 09:37 | 35.26708 | 32.20377 | 27585 ft | 504 kts | 103° |
| 2026-05-05 09:37 | 35.25655 | 32.24415 | 26848 ft | 500 kts | 103° |
| 2026-05-05 09:38 | 35.24597 | 32.28467 | 26122 ft | 496 kts | 103° |
| 2026-05-05 09:38 | 35.23542 | 32.32486 | 25400 ft | 493 kts | 103° |
| 2026-05-05 09:38 | 35.22507 | 32.36417 | 24714 ft | 491 kts | 103° |
| 2026-05-05 09:38 | 35.21457 | 32.40396 | 23983 ft | 490 kts | 103° |
| 2026-05-05 09:39 | 35.20405 | 32.44373 | 23238 ft | 488 kts | 103° |
| 2026-05-05 09:39 | 35.19365 | 32.48306 | 22542 ft | 484 kts | 103° |
| 2026-05-05 09:39 | 35.18344 | 32.52161 | 21900 ft | 479 kts | 103° |
| 2026-05-05 09:39 | 35.17318 | 32.56022 | 21290 ft | 474 kts | 103° |
| 2026-05-05 09:40 | 35.16297 | 32.59859 | 20684 ft | 470 kts | 104° |
| 2026-05-05 09:40 | 35.15288 | 32.63647 | 20123 ft | 466 kts | 104° |
| 2026-05-05 09:40 | 35.14299 | 32.67360 | 19550 ft | 462 kts | 104° |
| 2026-05-05 09:40 | 35.13299 | 32.71101 | 19012 ft | 459 kts | 105° |
| 2026-05-05 09:41 | 35.12305 | 32.74818 | 18457 ft | 456 kts | 105° |
| 2026-05-05 09:41 | 35.11337 | 32.78438 | 17874 ft | 453 kts | 105° |
| 2026-05-05 09:41 | 35.10357 | 32.82101 | 17313 ft | 447 kts | 105° |
| 2026-05-05 09:41 | 35.09393 | 32.85695 | 16756 ft | 443 kts | 105° |
| 2026-05-05 09:42 | 35.08444 | 32.89229 | 16204 ft | 439 kts | 105° |
| 2026-05-05 09:42 | 35.07495 | 32.92755 | 15614 ft | 436 kts | 105° |
| 2026-05-05 09:42 | 35.06538 | 32.96270 | 15017 ft | 433 kts | 106° |
| 2026-05-05 09:42 | 35.05559 | 32.99741 | 14521 ft | 428 kts | 107° |
| 2026-05-05 09:43 | 35.04581 | 33.03122 | 13897 ft | 427 kts | 107° |
| 2026-05-05 09:43 | 35.03589 | 33.06506 | 13448 ft | 418 kts | 107° |
| 2026-05-05 09:43 | 35.02620 | 33.09810 | 12819 ft | 414 kts | 108° |
| 2026-05-05 09:43 | 35.01660 | 33.13095 | 12056 ft | 403 kts | 108° |
| 2026-05-05 09:44 | 35.00737 | 33.16274 | 11368 ft | 387 kts | 109° |
| 2026-05-05 09:44 | 34.99860 | 33.19304 | 10782 ft | 369 kts | 109° |
| 2026-05-05 09:44 | 34.99042 | 33.22147 | 10597 ft | 349 kts | 110° |
| 2026-05-05 09:44 | 34.98250 | 33.24903 | 10456 ft | 336 kts | 110° |
| 2026-05-05 09:45 | 34.97492 | 33.27539 | 10335 ft | 323 kts | 110° |
| 2026-05-05 09:45 | 34.96766 | 33.30053 | 10201 ft | 312 kts | 110° |
| 2026-05-05 09:45 | 34.96045 | 33.32541 | 9929 ft | 307 kts | 110° |
| 2026-05-05 09:45 | 34.95337 | 33.34984 | 9699 ft | 302 kts | 110° |
| 2026-05-05 09:46 | 34.94645 | 33.37368 | 9540 ft | 302 kts | 110° |
| 2026-05-05 09:46 | 34.93943 | 33.39779 | 9115 ft | 301 kts | 110° |
| 2026-05-05 09:46 | 34.93240 | 33.42185 | 8666 ft | 301 kts | 110° |
| 2026-05-05 09:46 | 34.92538 | 33.44588 | 8284 ft | 299 kts | 110° |
| 2026-05-05 09:47 | 34.91851 | 33.46947 | 7908 ft | 297 kts | 110° |
| 2026-05-05 09:47 | 34.91155 | 33.49332 | 7466 ft | 297 kts | 110° |
| 2026-05-05 09:47 | 34.90458 | 33.51705 | 7047 ft | 295 kts | 110° |
| 2026-05-05 09:47 | 34.89771 | 33.54048 | 6719 ft | 291 kts | 110° |
| 2026-05-05 09:48 | 34.89097 | 33.56343 | 6282 ft | 290 kts | 110° |
| 2026-05-05 09:48 | 34.88415 | 33.58668 | 5834 ft | 289 kts | 110° |
| 2026-05-05 09:48 | 34.87995 | 33.60203 | 5547 ft | 288 kts | 104° |
| 2026-05-05 09:48 | 34.87826 | 33.63393 | 5040 ft | 282 kts | 80° |
| 2026-05-05 09:49 | 34.88109 | 33.64933 | 4773 ft | 279 kts | 69° |
| 2026-05-05 09:49 | 34.88833 | 33.67107 | 4339 ft | 276 kts | 65° |
| 2026-05-05 09:49 | 34.89562 | 33.69240 | 4168 ft | 267 kts | 66° |
| 2026-05-05 09:49 | 34.90505 | 33.72035 | 3581 ft | 263 kts | 66° |
| 2026-05-05 09:50 | 34.90953 | 33.73369 | 3476 ft | 249 kts | 66° |
| 2026-05-05 09:50 | 34.91582 | 33.75248 | 3384 ft | 232 kts | 66° |
| 2026-05-05 09:50 | 34.92187 | 33.77053 | 3275 ft | 227 kts | 66° |
| 2026-05-05 09:50 | 34.92966 | 33.78688 | 3159 ft | 220 kts | 40° |
| 2026-05-05 09:51 | 34.94239 | 33.79569 | 2992 ft | 212 kts | 10° |
| 2026-05-05 09:51 | 34.95682 | 33.79526 | 2846 ft | 208 kts | 341° |
| 2026-05-05 09:51 | 34.96908 | 33.78609 | 2706 ft | 211 kts | 312° |
| 2026-05-05 09:51 | 34.97593 | 33.77045 | 2550 ft | 211 kts | 283° |
| 2026-05-05 09:52 | 34.97524 | 33.75277 | 2394 ft | 208 kts | 251° |
| 2026-05-05 09:52 | 34.96731 | 33.73823 | 2169 ft | 207 kts | 229° |
| 2026-05-05 09:52 | 34.95734 | 33.72613 | 1964 ft | 201 kts | 227° |
| 2026-05-05 09:52 | 34.94761 | 33.71434 | 1697 ft | 194 kts | 228° |
| 2026-05-05 09:53 | 34.93821 | 33.70286 | 1453 ft | 188 kts | 226° |
| 2026-05-05 09:53 | 34.92907 | 33.69166 | 1233 ft | 184 kts | 227° |
| 2026-05-05 09:53 | 34.92008 | 33.68066 | 994 ft | 179 kts | 229° |
| 2026-05-05 09:53 | 34.91171 | 33.67042 | 793 ft | 166 kts | 227° |
| 2026-05-05 09:54 | 34.90383 | 33.66077 | 603 ft | 153 kts | 225° |
| 2026-05-05 09:54 | 34.89657 | 33.65187 | 420 ft | 143 kts | 224° |
| 2026-05-05 09:54 | 34.88969 | 33.64346 | 244 ft | 140 kts | 222° |
| 2026-05-05 09:54 | 34.88295 | 33.63520 | 67 ft | 136 kts | 222° |
| 2026-05-05 09:55 | 34.87667 | 33.62755 | 20 ft | 109 kts | 225° |
| 2026-05-05 09:55 | 34.87258 | 33.62256 | 18 ft | 60 kts | 226° |
| 2026-05-05 09:55 | 34.87045 | 33.61988 | 21 ft | 34 kts | 233° |
| 2026-05-05 09:55 | 34.86961 | 33.61749 | 24 ft | 29 kts | 253° |
| 2026-05-05 09:56 | 34.86916 | 33.61542 | 19 ft | 22 kts | 256° |
| 2026-05-05 09:56 | 34.86903 | 33.61363 | 18 ft | 23 kts | 300° |
| 2026-05-05 09:56 | 34.86997 | 33.61245 | 20 ft | 12 kts | 316° |
| 2026-05-05 09:56 | 34.87012 | 33.61205 | 20 ft | 4 kts | 259° |
| 2026-05-05 09:57 | 34.86999 | 33.61185 | 22 ft | 2 kts | 229° |
| 2026-05-05 09:57 | 34.86987 | 33.61170 | 20 ft | 2 kts | 224° |
| 2026-05-05 09:57 | 34.86975 | 33.61156 | 20 ft | 3 kts | 225° |
| 2026-05-05 09:57 | 34.86963 | 33.61140 | 20 ft | 2 kts | 225° |
| 2026-05-05 09:58 | 34.86954 | 33.61130 | 20 ft | 1 kts | 225° |
| 2026-05-05 09:58 | 34.86952 | 33.61127 | 20 ft | 0 kts | 225° |